Forside
METAR-TAF:

METAR-TAF

Lufthavne :

Pointe-à-Pitre, Guadeloupe

Breddekreds: 16-16N, længdekreds: 061-31W, højde: 11 m

Aktuelle vejr

Denne rapport blev lavet for 29 minutter siden, kl. 03:30 UTC
Vind 4 kt fra øst
Temperatur 25°C
Fugtighed 79%
Tryk 1015 hPa
Sigt 10 km eller mere
ingen skyer under 1500m og ingen cumulonimbus

METAR: TFFR 230330Z AUTO 10004KT CAVOK 25/21 Q1015 NOSIG

Tid: 23:59 (03:59 UTC)

Vejrudsigter

Denne rapport blev lavet for 5 timer og 59 minutter siden, kl. 22:00 UTC
Foreløbig gælder fra 23 på 00 UTC til 23 på 24 UTC
Vind 3 kt fra østnordøst
Sigt 10 km eller mere
Spredte skyer i en højde af 3500 ft
Sandsynlighed 40% :
Midlertidig
fra 23 på 06 UTC til 23 på 21 UTC
Sigt: 4000 m
Spredte skyer i en højde af 1800 ft, Optårnet Cumulus.
regnbyger
ændring
fra 23 på 13 UTC til 23 på 15 UTC
Vind 13 kt fra øst

TAF: TFFR 222200Z 2300/2324 06003KT 9999 SCT035 PROB40 TEMPO 2306/2321 4000 SHRA SCT018TCU BECMG 2313/2315 09013KT

Vejrobservationer og prognoser fra mere end 4000 lufthavne (METAR og TAF).

De gule og røde prikker repræsenterer de meteorologiske stationer.

Flyt musen over at se navnet på stationen.

Så klik over at se vejr observationer og prognoser.

At skifte det kort: Klik på de grønne knapper med et sort kors for at zoome ind; på den grønne knap med en bindestreg for at zoome ud; eller på de grønne pile for tilstødende kort.


METAR-TAF: